createdAt,value
2022-12-09T00:01:26.546Z,-2.17
2022-12-09T00:03:55.225Z,-2.25
2022-12-09T00:06:25.248Z,-2.24
2022-12-09T00:08:52.309Z,-2.28
2022-12-09T00:11:20.437Z,-2.30
2022-12-09T00:13:55.725Z,-2.28
2022-12-09T00:16:23.679Z,-2.36
2022-12-09T00:18:51.879Z,-2.31
2022-12-09T00:21:21.089Z,-2.26
2022-12-09T00:23:49.002Z,-2.21
2022-12-09T00:26:16.483Z,-2.37
2022-12-09T00:28:43.582Z,-2.40
2022-12-09T00:31:14.138Z,-2.40
2022-12-09T00:33:41.003Z,-2.43
2022-12-09T00:36:11.164Z,-2.23
2022-12-09T00:38:38.652Z,-2.20
2022-12-09T00:41:06.046Z,-2.22
2022-12-09T00:43:33.614Z,-2.24
2022-12-09T00:46:00.770Z,-2.34
2022-12-09T00:48:28.293Z,-2.39
2022-12-09T00:50:55.525Z,-2.47
2022-12-09T00:53:22.423Z,-2.47
2022-12-09T00:55:49.208Z,-2.43
2022-12-09T00:58:16.055Z,-2.41
2022-12-09T01:00:43.015Z,-2.30
2022-12-09T01:03:18.156Z,-2.14
2022-12-09T01:05:45.369Z,-2.10
2022-12-09T01:08:13.500Z,-2.03
2022-12-09T01:10:42.085Z,-1.98
2022-12-09T01:13:09.086Z,-2.08
2022-12-09T01:15:36.689Z,-2.22
2022-12-09T01:18:03.852Z,-2.37
2022-12-09T01:20:30.548Z,-2.39
2022-12-09T01:22:57.219Z,-2.39
2022-12-09T01:25:23.867Z,-2.55
2022-12-09T01:27:50.732Z,-2.43
2022-12-09T01:30:17.770Z,-2.35
2022-12-09T01:32:44.782Z,-2.33
2022-12-09T01:35:11.712Z,-2.40
2022-12-09T01:37:38.435Z,-2.50
2022-12-09T01:40:08.313Z,-2.45
2022-12-09T01:42:35.052Z,-2.39
2022-12-09T01:45:41.653Z,-2.50
2022-12-09T01:48:16.632Z,-2.46
2022-12-09T01:50:54.424Z,-2.48
2022-12-09T01:53:26.192Z,-2.50
2022-12-09T01:55:55.508Z,-2.50
2022-12-09T01:58:22.459Z,-2.56
2022-12-09T02:00:49.398Z,-2.45
2022-12-09T02:03:16.461Z,-2.44
2022-12-09T02:05:44.561Z,-2.32
2022-12-09T02:08:17.316Z,-2.26
2022-12-09T02:11:07.827Z,-2.21
2022-12-09T02:14:11.897Z,-2.23
2022-12-09T02:16:51.378Z,-2.29
2022-12-09T02:19:44.001Z,-2.13
2022-12-09T02:22:16.267Z,-2.12
2022-12-09T02:24:52.386Z,-2.30
2022-12-09T02:27:28.192Z,-2.34
2022-12-09T02:30:23.229Z,-2.27
2022-12-09T02:33:32.033Z,-2.37
2022-12-09T02:36:13.073Z,-2.37
2022-12-09T02:38:42.469Z,-2.40
2022-12-09T02:41:28.567Z,-2.34
2022-12-09T02:44:03.142Z,-2.34
2022-12-09T02:46:32.029Z,-2.33
2022-12-09T02:48:59.586Z,-2.49
2022-12-09T02:51:33.592Z,-2.35
2022-12-09T02:54:07.537Z,-2.51
2022-12-09T02:56:35.576Z,-2.45
2022-12-09T02:59:02.529Z,-2.40
2022-12-09T03:01:37.403Z,-2.42
2022-12-09T03:04:07.651Z,-2.36
2022-12-09T03:06:50.946Z,-2.30
2022-12-09T03:09:32.974Z,-2.13
2022-12-09T03:12:06.400Z,-1.99
2022-12-09T03:14:41.981Z,-2.14
2022-12-09T03:17:16.192Z,-2.06
2022-12-09T03:19:49.736Z,-2.00
2022-12-09T03:22:20.972Z,-2.03
2022-12-09T03:24:58.809Z,-1.97
2022-12-09T03:27:32.493Z,-1.91
2022-12-09T03:30:03.227Z,-1.94
2022-12-09T03:32:32.557Z,-1.85
2022-12-09T03:35:08.752Z,-1.74
2022-12-09T03:37:38.758Z,-1.65
2022-12-09T03:40:13.947Z,-1.54
2022-12-09T03:42:53.283Z,-1.47
2022-12-09T03:45:21.353Z,-1.48
2022-12-09T03:47:48.267Z,-1.34
2022-12-09T03:50:15.267Z,-1.28
2022-12-09T03:52:53.425Z,-1.19
2022-12-09T03:55:29.235Z,-1.11
2022-12-09T03:58:00.200Z,-1.16
2022-12-09T04:00:27.649Z,-1.13
2022-12-09T04:02:54.623Z,-1.02
2022-12-09T04:05:21.624Z,-1.02
2022-12-09T04:07:48.633Z,-0.97
2022-12-09T04:10:15.572Z,-0.95
2022-12-09T04:12:42.268Z,-0.96
2022-12-09T04:15:10.311Z,-0.91
2022-12-09T04:17:37.238Z,-0.91
2022-12-09T04:20:05.836Z,-0.89
2022-12-09T04:22:32.950Z,-0.85
2022-12-09T04:24:59.890Z,-0.83
2022-12-09T04:27:26.871Z,-0.80
2022-12-09T04:29:53.702Z,-0.80
2022-12-09T04:32:20.423Z,-0.66
2022-12-09T04:34:47.265Z,-0.69
2022-12-09T04:37:15.430Z,-0.89
2022-12-09T04:39:42.120Z,-0.84
2022-12-09T04:42:08.853Z,-0.91
2022-12-09T04:44:35.821Z,-0.91
2022-12-09T04:47:02.717Z,-0.92
2022-12-09T04:49:29.607Z,-0.82
2022-12-09T04:51:56.295Z,-0.83
2022-12-09T04:54:23.055Z,-0.82
2022-12-09T04:56:50.337Z,-0.79
2022-12-09T04:59:17.049Z,-0.81
2022-12-09T05:01:44.424Z,-0.82
2022-12-09T05:04:11.467Z,-0.88
2022-12-09T05:06:38.751Z,-0.90
2022-12-09T05:09:05.896Z,-0.88
2022-12-09T05:11:33.039Z,-0.87
2022-12-09T05:13:59.929Z,-0.91
2022-12-09T05:16:27.292Z,-0.87
2022-12-09T05:18:54.191Z,-0.84
2022-12-09T05:21:21.711Z,-0.99
2022-12-09T05:23:49.061Z,-1.00
2022-12-09T05:26:18.754Z,-1.05
2022-12-09T05:28:45.798Z,-1.06
2022-12-09T05:31:19.846Z,-1.02
2022-12-09T05:33:47.788Z,-0.91
2022-12-09T05:36:17.777Z,-0.84
2022-12-09T05:38:45.133Z,-0.83
2022-12-09T05:41:12.197Z,-0.78
2022-12-09T05:43:38.991Z,-0.75
2022-12-09T05:46:07.089Z,-0.76
2022-12-09T05:48:35.261Z,-0.77
2022-12-09T05:51:12.350Z,-0.74
2022-12-09T05:53:39.666Z,-0.74
2022-12-09T05:56:06.712Z,-0.79
2022-12-09T05:58:34.323Z,-0.83
2022-12-09T06:01:08.714Z,-0.87
2022-12-09T06:03:36.702Z,-0.97
2022-12-09T06:06:12.381Z,-0.94
2022-12-09T06:08:39.942Z,-0.87
2022-12-09T06:11:12.813Z,-0.87
2022-12-09T06:13:39.988Z,-0.87
2022-12-09T06:16:07.886Z,-0.83
2022-12-09T06:18:36.142Z,-0.84
2022-12-09T06:21:10.833Z,-0.83
2022-12-09T06:23:41.419Z,-0.81
2022-12-09T06:26:23.066Z,-0.78
2022-12-09T06:28:50.348Z,-0.71
2022-12-09T06:31:17.336Z,-0.66
2022-12-09T06:34:00.476Z,-0.57
2022-12-09T06:36:30.239Z,-0.55
2022-12-09T06:39:01.793Z,-0.44
2022-12-09T06:41:32.753Z,-0.39
2022-12-09T06:44:00.248Z,-0.36
2022-12-09T06:46:28.551Z,-0.38
2022-12-09T06:48:55.893Z,-0.32
2022-12-09T06:51:24.329Z,-0.32
2022-12-09T06:53:51.377Z,-0.34
2022-12-09T06:56:18.446Z,-0.31
2022-12-09T06:58:46.599Z,-0.31
2022-12-09T07:01:19.941Z,-0.30
2022-12-09T07:03:49.387Z,-0.21
2022-12-09T07:06:34.555Z,-0.19
2022-12-09T07:09:04.705Z,-0.15
2022-12-09T07:11:31.963Z,-0.14
2022-12-09T07:13:59.071Z,-0.12
2022-12-09T07:16:26.105Z,-0.05
2022-12-09T07:18:54.526Z,-0.06
2022-12-09T07:21:23.373Z,0.02
2022-12-09T07:23:50.664Z,0.09
2022-12-09T07:26:18.496Z,0.09
2022-12-09T07:28:47.296Z,0.10
2022-12-09T07:31:20.328Z,0.08
2022-12-09T07:33:47.767Z,0.20
2022-12-09T07:36:20.512Z,0.23
2022-12-09T07:38:48.285Z,0.30
2022-12-09T07:41:21.060Z,0.28
2022-12-09T07:43:48.969Z,0.33
2022-12-09T07:46:18.202Z,0.43
2022-12-09T07:48:45.799Z,0.45
2022-12-09T07:51:12.812Z,0.46
2022-12-09T07:53:39.420Z,0.45
2022-12-09T07:56:09.294Z,0.45
2022-12-09T07:58:36.348Z,0.48
2022-12-09T08:01:08.988Z,0.50
2022-12-09T08:03:36.197Z,0.51
2022-12-09T08:06:03.952Z,0.65
2022-12-09T08:08:31.986Z,0.55
2022-12-09T08:11:13.762Z,0.67
2022-12-09T08:13:42.380Z,0.69
2022-12-09T08:16:11.711Z,0.69
2022-12-09T08:18:38.723Z,0.68
2022-12-09T08:21:11.817Z,0.74
2022-12-09T08:23:39.576Z,0.78
2022-12-09T08:26:06.894Z,0.84
2022-12-09T08:28:34.112Z,0.89
2022-12-09T08:31:11.605Z,0.88
2022-12-09T08:33:38.973Z,1.04
2022-12-09T08:36:10.930Z,1.78
2022-12-09T08:38:37.800Z,1.90
2022-12-09T08:41:20.251Z,2.05
2022-12-09T08:43:47.631Z,2.00
2022-12-09T08:46:15.409Z,1.89
2022-12-09T08:48:42.965Z,1.69
2022-12-09T08:51:12.336Z,1.55
2022-12-09T08:53:39.812Z,1.43
2022-12-09T08:56:15.044Z,1.42
2022-12-09T08:58:42.542Z,1.54
2022-12-09T09:01:21.022Z,1.62
2022-12-09T09:03:49.056Z,1.66
2022-12-09T09:06:18.138Z,1.72
2022-12-09T09:08:45.814Z,1.79
2022-12-09T09:11:16.097Z,1.81
2022-12-09T09:13:44.524Z,1.85
2022-12-09T09:16:14.949Z,1.87
2022-12-09T09:18:42.857Z,1.81
2022-12-09T09:21:11.728Z,1.69
2022-12-09T09:23:38.783Z,1.57
2022-12-09T09:26:09.533Z,1.43
2022-12-09T09:28:36.229Z,1.44
2022-12-09T09:31:05.383Z,1.48
2022-12-09T09:33:32.634Z,1.29
2022-12-09T09:36:06.844Z,1.29
2022-12-09T09:38:35.351Z,1.30
2022-12-09T09:41:08.259Z,1.27
2022-12-09T09:43:38.460Z,1.27
2022-12-09T09:46:06.215Z,1.30
2022-12-09T09:48:35.934Z,1.35
2022-12-09T09:51:15.289Z,1.56
2022-12-09T09:53:42.427Z,1.67
2022-12-09T09:57:07.828Z,1.67
2022-12-09T10:00:11.091Z,1.78
2022-12-09T10:03:04.970Z,1.83
2022-12-09T10:05:35.987Z,1.81
2022-12-09T10:08:22.862Z,1.72
2022-12-09T10:11:14.336Z,1.71
2022-12-09T10:14:30.679Z,1.78
2022-12-09T10:17:39.097Z,1.80
2022-12-09T10:20:13.797Z,1.80
2022-12-09T10:22:50.575Z,1.71
2022-12-09T10:25:24.896Z,1.71
2022-12-09T10:28:25.556Z,1.72
2022-12-09T10:30:55.464Z,1.67
2022-12-09T10:33:38.008Z,1.52
2022-12-09T10:36:07.745Z,1.49
2022-12-09T10:38:39.051Z,1.49
2022-12-09T10:41:38.913Z,1.40
2022-12-09T10:44:23.933Z,1.31
2022-12-09T10:47:03.231Z,1.26
2022-12-09T10:49:31.210Z,1.26
2022-12-09T10:51:58.699Z,1.23
2022-12-09T10:54:40.042Z,1.25
2022-12-09T10:57:24.549Z,1.28
2022-12-09T11:00:21.584Z,1.30
2022-12-09T11:02:56.055Z,1.31
2022-12-09T11:05:30.891Z,1.22
2022-12-09T11:07:59.377Z,1.22
2022-12-09T11:10:29.615Z,1.23
2022-12-09T11:13:05.754Z,1.21
2022-12-09T11:15:42.042Z,1.23
2022-12-09T11:18:32.258Z,1.23
2022-12-09T11:21:05.866Z,1.29
2022-12-09T11:23:33.025Z,1.34
2022-12-09T11:26:01.783Z,1.32
2022-12-09T11:28:35.990Z,1.25
2022-12-09T11:31:28.487Z,1.21
2022-12-09T11:34:00.360Z,1.19
2022-12-09T11:36:32.640Z,1.16
2022-12-09T11:39:40.086Z,1.24
2022-12-09T11:42:32.743Z,1.10
2022-12-09T11:45:25.910Z,1.20
2022-12-09T11:48:25.919Z,1.10
2022-12-09T11:50:51.610Z,1.10
2022-12-09T11:53:31.040Z,1.11
2022-12-09T11:56:11.368Z,1.10
2022-12-09T11:58:50.385Z,1.08
2022-12-09T12:01:56.363Z,1.09
2022-12-09T12:04:34.684Z,1.06
2022-12-09T12:07:19.158Z,1.14
2022-12-09T12:09:54.109Z,1.10
2022-12-09T12:12:38.789Z,1.02
2022-12-09T12:15:19.953Z,0.96
2022-12-09T12:17:52.176Z,0.97
2022-12-09T12:20:19.029Z,0.91
2022-12-09T12:23:40.094Z,1.01
2022-12-09T12:26:17.179Z,0.95
2022-12-09T12:29:33.729Z,1.02
2022-12-09T12:32:52.282Z,1.08
2022-12-09T12:35:56.063Z,1.10
2022-12-09T12:38:30.765Z,1.05
2022-12-09T12:41:37.147Z,1.09
2022-12-09T12:44:47.184Z,1.07
2022-12-09T12:47:36.793Z,1.05
2022-12-09T12:50:12.696Z,1.06
2022-12-09T12:52:56.492Z,1.00
2022-12-09T12:55:41.609Z,0.90
2022-12-09T12:58:23.215Z,0.90
2022-12-09T13:01:22.414Z,1.42
2022-12-09T13:04:13.365Z,1.29
2022-12-09T13:07:23.551Z,1.16
2022-12-09T13:10:36.942Z,1.13
2022-12-09T13:13:05.797Z,1.02
2022-12-09T13:15:42.616Z,1.38
2022-12-09T13:18:17.023Z,1.80
2022-12-09T13:20:54.769Z,2.02
2022-12-09T13:23:49.185Z,1.78
2022-12-09T13:26:50.853Z,1.59
2022-12-09T13:29:30.234Z,1.50
2022-12-09T13:32:16.705Z,1.39
2022-12-09T13:34:55.736Z,1.36
2022-12-09T13:37:37.202Z,1.32
2022-12-09T13:40:27.671Z,1.26
2022-12-09T13:43:25.868Z,1.29
2022-12-09T13:46:01.150Z,1.32
2022-12-09T13:48:46.955Z,1.23
2022-12-09T13:51:14.144Z,1.27
2022-12-09T13:53:46.732Z,1.36
2022-12-09T13:56:16.365Z,1.33
2022-12-09T13:59:28.041Z,1.39
2022-12-09T14:02:35.233Z,1.44
2022-12-09T14:05:11.388Z,1.43
2022-12-09T14:07:48.411Z,1.42
2022-12-09T14:10:38.331Z,1.33
2022-12-09T14:13:36.621Z,1.40
2022-12-09T14:16:33.856Z,1.24
2022-12-09T14:19:38.781Z,1.40
2022-12-09T14:22:39.051Z,1.33
2022-12-09T14:25:28.331Z,1.32
2022-12-09T14:28:24.243Z,1.30
2022-12-09T14:31:00.745Z,1.33
2022-12-09T14:33:36.269Z,1.28
2022-12-09T14:36:30.669Z,1.40
2022-12-09T14:39:25.132Z,1.30
2022-12-09T14:42:04.284Z,1.25
2022-12-09T14:44:40.711Z,1.26
2022-12-09T14:47:22.657Z,1.18
2022-12-09T14:49:50.744Z,1.06
2022-12-09T14:52:35.445Z,1.00
2022-12-09T14:55:09.293Z,1.02
2022-12-09T14:57:44.964Z,1.16
2022-12-09T15:00:31.444Z,1.20
2022-12-09T15:06:00.981Z,1.03
2022-12-09T15:08:35.443Z,1.13
2022-12-09T15:11:12.096Z,1.21
2022-12-09T15:13:44.161Z,1.20
2022-12-09T15:16:14.086Z,1.13
2022-12-09T15:18:43.248Z,1.15
2022-12-09T15:21:10.632Z,1.17
2022-12-09T15:23:43.737Z,1.18
2022-12-09T15:26:32.775Z,1.32
2022-12-09T15:29:01.312Z,1.34
2022-12-09T15:31:30.580Z,1.33
2022-12-09T15:34:11.654Z,1.28
2022-12-09T15:36:49.467Z,1.28
2022-12-09T15:39:32.443Z,1.31
2022-12-09T15:42:07.090Z,1.37
2022-12-09T15:44:53.362Z,1.32
2022-12-09T15:47:28.298Z,1.26
2022-12-09T15:50:18.290Z,1.19
2022-12-09T15:52:51.166Z,1.20
2022-12-09T15:55:22.229Z,1.24
2022-12-09T15:57:52.948Z,1.23
2022-12-09T16:00:20.120Z,1.21
2022-12-09T16:02:49.278Z,1.13
2022-12-09T16:05:22.703Z,1.18
2022-12-09T16:07:59.752Z,1.20
2022-12-09T16:10:27.879Z,1.24
2022-12-09T16:13:05.750Z,1.24
2022-12-09T16:16:33.783Z,1.14
2022-12-09T16:19:00.417Z,1.12
2022-12-09T16:21:31.808Z,1.07
2022-12-09T16:24:07.162Z,1.10
2022-12-09T16:26:37.885Z,1.07
2022-12-09T16:29:08.109Z,1.06
2022-12-09T16:31:34.896Z,1.13
2022-12-09T16:34:01.628Z,1.14
2022-12-09T16:36:31.472Z,1.15
2022-12-09T16:39:33.598Z,1.07
2022-12-09T16:42:01.793Z,1.05
2022-12-09T16:44:35.205Z,1.11
2022-12-09T16:47:18.213Z,1.12
2022-12-09T16:49:47.536Z,1.11
2022-12-09T16:52:24.069Z,1.09
2022-12-09T16:54:51.680Z,1.09
2022-12-09T16:57:19.888Z,1.12
2022-12-09T16:59:46.741Z,1.05
2022-12-09T17:02:26.582Z,1.05
2022-12-09T17:04:53.319Z,1.08
2022-12-09T17:07:19.975Z,1.11
2022-12-09T17:09:46.569Z,1.10
2022-12-09T17:12:13.229Z,1.00
2022-12-09T17:14:40.050Z,1.06
2022-12-09T17:17:06.855Z,1.15
2022-12-09T17:19:33.492Z,1.14
2022-12-09T17:22:00.108Z,1.14
2022-12-09T17:24:26.749Z,1.19
2022-12-09T17:26:53.440Z,1.19
2022-12-09T17:29:20.183Z,1.30
2022-12-09T17:31:49.750Z,1.31
2022-12-09T17:34:16.579Z,1.28
2022-12-09T17:36:43.360Z,1.19
2022-12-09T17:39:12.644Z,1.19
2022-12-09T17:41:39.827Z,1.22
2022-12-09T17:44:06.846Z,1.24
2022-12-09T17:46:33.470Z,1.27
2022-12-09T17:49:01.048Z,1.29
2022-12-09T17:51:33.920Z,1.23
2022-12-09T17:54:02.468Z,1.34
2022-12-09T17:56:28.974Z,1.24
2022-12-09T17:59:02.672Z,1.28
2022-12-09T18:01:30.738Z,1.32
2022-12-09T18:04:02.896Z,1.36
2022-12-09T18:06:34.485Z,1.42
2022-12-09T18:09:05.591Z,1.31
2022-12-09T18:11:32.818Z,1.26
2022-12-09T18:13:59.916Z,1.22
2022-12-09T18:16:26.730Z,1.18
2022-12-09T18:18:53.541Z,1.19
2022-12-09T18:21:20.389Z,1.16
2022-12-09T18:23:48.270Z,1.23
2022-12-09T18:26:17.814Z,1.18
2022-12-09T18:28:44.505Z,1.14
2022-12-09T18:31:14.120Z,1.04
2022-12-09T18:33:41.154Z,1.05
2022-12-09T18:36:14.128Z,1.00
2022-12-09T18:38:41.102Z,0.99
2022-12-09T18:41:22.387Z,1.03
2022-12-09T18:43:51.024Z,1.14
2022-12-09T18:46:26.738Z,1.12
2022-12-09T18:49:02.467Z,0.95
2022-12-09T18:51:29.918Z,0.97
2022-12-09T18:53:58.576Z,0.98
2022-12-09T18:56:25.948Z,1.00
2022-12-09T18:59:09.458Z,0.98
2022-12-09T19:01:40.645Z,0.90
2022-12-09T19:04:12.390Z,0.91
2022-12-09T19:06:40.606Z,0.92
2022-12-09T19:09:12.947Z,0.88
2022-12-09T19:11:40.731Z,0.92
2022-12-09T19:14:08.638Z,0.89
2022-12-09T19:16:35.919Z,0.89
2022-12-09T19:19:09.054Z,0.84
2022-12-09T19:21:36.988Z,0.86
2022-12-09T19:24:03.680Z,0.83
2022-12-09T19:26:32.389Z,0.78
2022-12-09T19:29:02.520Z,0.78
2022-12-09T19:31:36.277Z,0.69
2022-12-09T19:34:08.273Z,0.71
2022-12-09T19:36:35.350Z,0.70
2022-12-09T19:39:03.517Z,0.81
2022-12-09T19:41:30.070Z,0.71
2022-12-09T19:43:58.317Z,0.65
2022-12-09T19:46:26.637Z,0.67
2022-12-09T19:48:54.166Z,0.59
2022-12-09T19:51:21.826Z,0.66
2022-12-09T19:53:49.142Z,0.75
2022-12-09T19:56:18.173Z,0.78
2022-12-09T19:58:46.073Z,0.69
2022-12-09T20:01:21.840Z,0.62
2022-12-09T20:03:57.254Z,0.65
2022-12-09T20:06:24.349Z,0.70
2022-12-09T20:08:50.914Z,0.62
2022-12-09T20:11:19.888Z,0.65
2022-12-09T20:13:47.382Z,0.69
2022-12-09T20:16:18.616Z,0.72
2022-12-09T20:18:46.744Z,0.69
2022-12-09T20:21:14.539Z,0.65
2022-12-09T20:23:42.957Z,0.67
2022-12-09T20:26:27.633Z,0.69
2022-12-09T20:28:56.398Z,0.67
2022-12-09T20:31:28.409Z,0.74
2022-12-09T20:33:57.491Z,0.70
2022-12-09T20:36:27.704Z,0.61
2022-12-09T20:38:57.062Z,0.57
2022-12-09T20:41:25.450Z,0.59
2022-12-09T20:43:54.681Z,0.61
2022-12-09T20:46:23.889Z,0.62
2022-12-09T20:48:51.099Z,0.45
2022-12-09T20:51:32.529Z,0.53
2022-12-09T20:53:59.719Z,0.45
2022-12-09T20:56:28.017Z,0.50
2022-12-09T20:58:55.412Z,0.54
2022-12-09T21:01:33.506Z,0.57
2022-12-09T21:04:01.952Z,0.61
2022-12-09T21:06:31.245Z,0.60
2022-12-09T21:09:02.859Z,0.68
2022-12-09T21:11:29.455Z,0.72
2022-12-09T21:14:01.275Z,0.75
2022-12-09T21:16:32.867Z,0.63
2022-12-09T21:19:05.958Z,0.61
2022-12-09T21:21:35.982Z,0.55
2022-12-09T21:24:03.674Z,0.42
2022-12-09T21:26:30.721Z,0.44
2022-12-09T21:29:01.117Z,0.63
2022-12-09T21:31:30.163Z,0.43
2022-12-09T21:33:58.204Z,0.40
2022-12-09T21:36:27.631Z,0.46
2022-12-09T21:38:54.883Z,0.64
2022-12-09T21:41:24.697Z,0.47
2022-12-09T21:43:52.200Z,0.53
2022-12-09T21:46:21.687Z,0.38
2022-12-09T21:48:52.436Z,0.35
2022-12-09T21:51:20.593Z,0.43
2022-12-09T21:53:48.848Z,0.34
2022-12-09T21:56:21.297Z,0.44
2022-12-09T21:58:49.879Z,0.46
2022-12-09T22:01:20.273Z,0.44
2022-12-09T22:03:48.220Z,0.48
2022-12-09T22:06:16.003Z,0.42
2022-12-09T22:08:43.320Z,0.49
2022-12-09T22:11:11.893Z,0.42
2022-12-09T22:13:39.796Z,0.35
2022-12-09T22:16:12.270Z,0.36
2022-12-09T22:18:39.357Z,0.42
2022-12-09T22:21:25.122Z,0.51
2022-12-09T22:23:58.047Z,0.54
2022-12-09T22:26:24.723Z,0.59
2022-12-09T22:28:51.562Z,0.59
2022-12-09T22:31:21.439Z,0.60
2022-12-09T22:33:49.458Z,0.65
2022-12-09T22:36:16.623Z,0.69
2022-12-09T22:38:43.356Z,0.61
2022-12-09T22:41:16.082Z,0.57
2022-12-09T22:43:43.349Z,0.62
2022-12-09T22:46:16.870Z,0.63
2022-12-09T22:48:43.761Z,0.69
2022-12-09T22:51:13.063Z,0.72
2022-12-09T22:53:40.619Z,0.68
2022-12-09T22:56:08.352Z,0.69
2022-12-09T22:58:35.508Z,0.71
2022-12-09T23:01:02.459Z,0.62
2022-12-09T23:03:29.118Z,0.59
2022-12-09T23:05:55.735Z,0.56
2022-12-09T23:08:22.680Z,0.62
2022-12-09T23:10:49.347Z,0.57
2022-12-09T23:13:15.898Z,0.62
2022-12-09T23:15:42.506Z,0.52
2022-12-09T23:18:09.097Z,0.51
2022-12-09T23:20:35.701Z,0.61
2022-12-09T23:23:02.359Z,0.61
2022-12-09T23:25:28.948Z,0.63
2022-12-09T23:27:55.500Z,0.71
2022-12-09T23:30:22.039Z,0.61
2022-12-09T23:32:48.593Z,0.66
2022-12-09T23:35:15.252Z,0.68
2022-12-09T23:37:41.887Z,0.72
2022-12-09T23:40:09.771Z,0.74
2022-12-09T23:42:36.415Z,0.56
2022-12-09T23:45:03.146Z,0.62
2022-12-09T23:47:29.836Z,0.68
2022-12-09T23:49:56.503Z,0.77
2022-12-09T23:52:23.085Z,0.65
2022-12-09T23:54:49.673Z,0.71
2022-12-09T23:57:16.410Z,0.79
2022-12-09T23:59:42.988Z,0.83
